Time;durP1;ratioP1;P1;durP2;ratioP2;P2;SDS_P1;SDS_P2;PMS_P1;PMS_P2;Temp;Humidity;BMP_temperature;BMP_pressure;BME280_temperature;BME280_humidity;BME280_pressure;Samples;Min_cycle;Max_cycle;Signal;HPM_P1;HPM_P2
2022/09/16 00:00:07;;;;;;;4.20;1.20;;;;;;;12.75;79.34;99570.63;5102582;28;20574;-63
2022/09/16 00:02:35;;;;;;;4.70;1.87;;;;;;;12.69;79.32;99565.97;5101754;28;20443;-63
2022/09/16 00:05:02;;;;;;;3.20;2.07;;;;;;;12.76;79.73;99566.13;5097031;28;20510;-63
2022/09/16 00:07:29;;;;;;;2.67;1.90;;;;;;;12.72;79.90;99568.28;5101095;28;20505;-62
2022/09/16 00:10:10;;;;;;;3.17;1.90;;;;;;;12.73;80.05;99559.25;5102387;28;20690;-63
2022/09/16 00:12:37;;;;;;;4.70;1.93;;;;;;;12.61;80.31;99565.97;5101106;28;20463;-63
2022/09/16 00:15:04;;;;;;;5.03;1.93;;;;;;;12.60;80.58;99557.09;5102606;28;20563;-63
2022/09/16 00:17:31;;;;;;;3.77;2.10;;;;;;;12.66;80.55;99558.25;5100406;28;20467;-64
2022/09/16 00:19:59;;;;;;;5.43;2.20;;;;;;;12.67;80.78;99554.56;5102419;28;20447;-63
2022/09/16 00:22:28;;;;;;;4.67;2.30;;;;;;;12.72;80.77;99554.03;5101430;28;20475;-63
2022/09/16 00:24:54;;;;;;;3.40;1.87;;;;;;;12.67;81.08;99556.41;5101595;28;20498;-64
2022/09/16 00:27:21;;;;;;;8.00;2.80;;;;;;;12.54;81.32;99547.06;5100869;28;20506;-63
2022/09/16 00:29:47;;;;;;;4.63;2.57;;;;;;;12.68;81.29;99555.41;5102097;28;20474;-64
2022/09/16 00:32:14;;;;;;;4.90;2.30;;;;;;;12.56;81.69;99565.66;5101296;28;20495;-64
2022/09/16 00:34:41;;;;;;;6.30;2.20;;;;;;;12.72;81.61;99560.25;5101897;28;20453;-64
2022/09/16 00:37:09;;;;;;;4.90;2.20;;;;;;;12.72;81.90;99559.41;5093254;28;21088;-62
2022/09/16 00:39:36;;;;;;;2.97;2.20;;;;;;;12.73;81.99;99569.97;5101477;28;20463;-63
2022/09/16 00:42:03;;;;;;;5.90;1.90;;;;;;;12.72;81.72;99567.47;5100597;28;20485;-63
2022/09/16 00:44:51;;;;;;;2.83;1.90;;;;;;;12.65;82.10;99558.44;5101763;28;20491;-64
2022/09/16 00:47:21;;;;;;;3.97;2.67;;;;;;;12.59;82.68;99557.28;5100527;28;20479;-63
2022/09/16 00:49:48;;;;;;;4.97;1.53;;;;;;;12.61;82.55;99552.56;5101838;28;20427;-64
2022/09/16 00:52:17;;;;;;;5.37;2.00;;;;;;;12.70;82.25;99556.91;5100969;28;20485;-63
2022/09/16 00:54:44;;;;;;;7.30;2.50;;;;;;;12.68;82.08;99558.09;5101590;28;20451;-63
2022/09/16 00:57:12;;;;;;;5.57;2.00;;;;;;;12.65;82.23;99559.25;5099863;28;20509;-62
2022/09/16 00:59:42;;;;;;;4.37;1.83;;;;;;;12.76;81.85;99552.72;5101442;28;20455;-62
2022/09/16 01:02:11;;;;;;;6.27;1.63;;;;;;;12.68;81.97;99542.00;5097267;28;20486;-64
2022/09/16 01:04:41;;;;;;;4.50;2.13;;;;;;;12.72;82.03;99548.69;5101285;28;20463;-64
2022/09/16 01:07:08;;;;;;;4.50;1.73;;;;;;;12.57;82.44;99557.44;5099369;28;20471;-62
2022/09/16 01:09:36;;;;;;;4.23;2.10;;;;;;;12.56;82.21;99552.25;5101096;28;20496;-63
2022/09/16 01:12:03;;;;;;;6.93;2.53;;;;;;;12.61;82.20;99557.94;5099896;28;20490;-63
2022/09/16 01:17:19;;;;;;;3.00;1.30;;;;;;;12.56;82.61;99558.44;5099183;28;20477;-63
2022/09/16 01:20:00;;;;;;;2.10;1.43;;;;;;;12.59;82.54;99559.97;5100755;28;20480;-62
2022/09/16 01:22:41;;;;;;;2.07;1.60;;;;;;;12.62;81.93;99554.25;5100424;28;20510;-64
2022/09/16 01:25:21;;;;;;;4.13;1.93;;;;;;;12.72;81.57;99543.31;5100613;28;20494;-64
2022/09/16 01:28:00;;;;;;;3.07;2.00;;;;;;;12.63;81.64;99555.91;5099839;28;20472;-64
2022/09/16 01:30:49;;;;;;;5.00;1.90;;;;;;;12.50;82.17;99552.91;5100581;28;20490;-64
2022/09/16 01:33:24;;;;;;;5.20;2.00;;;;;;;12.54;81.72;99554.25;5088550;28;20440;-63
2022/09/16 01:36:20;;;;;;;4.67;1.67;;;;;;;12.63;81.39;99551.38;5099928;28;20492;-64
2022/09/16 01:38:55;;;;;;;3.83;2.97;;;;;;;12.65;81.27;99551.22;5097421;28;20462;-64
2022/09/16 01:41:28;;;;;;;3.57;1.57;;;;;;;12.59;81.26;99549.22;5099722;28;21119;-63
2022/09/16 01:43:59;;;;;;;4.83;1.97;;;;;;;12.53;81.57;99556.09;5100025;28;20530;-63
2022/09/16 01:46:34;;;;;;;3.70;1.40;;;;;;;12.38;82.12;99553.28;5099234;28;20546;-63
2022/09/16 01:49:04;;;;;;;3.87;1.80;;;;;;;12.25;81.94;99547.59;5100109;28;20466;-63
2022/09/16 01:51:37;;;;;;;3.93;2.03;;;;;;;12.17;82.46;99553.81;5099699;28;20502;-63
2022/09/16 01:54:06;;;;;;;3.67;1.97;;;;;;;12.23;82.10;99549.59;5092043;28;20475;-63
2022/09/16 01:56:37;;;;;;;2.00;1.30;;;;;;;12.18;82.50;99555.47;5098918;28;20476;-63
2022/09/16 01:59:07;;;;;;;3.30;1.60;;;;;;;11.99;83.34;99556.63;5100044;28;20439;-64
2022/09/16 02:01:39;;;;;;;3.33;1.97;;;;;;;12.05;83.65;99558.66;5099472;28;20467;-63
2022/09/16 02:04:10;;;;;;;4.23;2.20;;;;;;;11.95;84.13;99557.97;5099816;28;20431;-63
2022/09/16 02:06:38;;;;;;;8.53;2.47;;;;;;;12.01;83.88;99551.09;5099420;28;20551;-63
2022/09/16 02:09:08;;;;;;;3.90;1.87;;;;;;;11.95;84.17;99549.13;5100143;28;20470;-63
2022/09/16 02:11:35;;;;;;;3.70;2.20;;;;;;;11.99;84.17;99556.63;5098360;28;21016;-63
2022/09/16 02:14:07;;;;;;;4.97;2.30;;;;;;;11.97;83.79;99547.94;5099691;28;20479;-64
2022/09/16 02:16:38;;;;;;;4.50;2.27;;;;;;;11.97;84.16;99544.41;5099339;28;20474;-64
2022/09/16 02:19:07;;;;;;;4.73;3.27;;;;;;;11.95;84.49;99549.94;5099313;28;20427;-63
2022/09/16 02:21:34;;;;;;;6.70;2.40;;;;;;;11.92;84.25;99542.22;5099038;28;20486;-63
2022/09/16 02:24:04;;;;;;;2.97;2.33;;;;;;;11.82;84.89;99547.75;5099822;28;20910;-64
2022/09/16 02:26:34;;;;;;;3.50;2.80;;;;;;;11.73;84.90;99547.88;5097977;28;20506;-63
2022/09/16 02:29:02;;;;;;;5.53;2.70;;;;;;;11.86;84.65;99546.38;5099725;28;20478;-63
2022/09/16 02:31:33;;;;;;;3.63;2.30;;;;;;;11.90;84.06;99554.09;5099437;28;21338;-63
2022/09/16 02:34:04;;;;;;;4.87;2.40;;;;;;;11.79;84.78;99552.59;5099685;28;20434;-63
2022/09/16 02:36:31;;;;;;;8.10;2.33;;;;;;;11.72;85.42;99547.06;5099672;28;20479;-63
2022/09/16 02:39:03;;;;;;;5.53;2.70;;;;;;;11.70;85.45;99549.06;5100367;28;20451;-63
2022/09/16 02:41:30;;;;;;;5.30;2.90;;;;;;;11.75;85.55;99546.72;5097945;28;21044;-63
2022/09/16 02:43:56;;;;;;;2.40;2.20;;;;;;;11.73;85.61;99548.72;5099618;28;20512;-62
2022/09/16 02:46:26;;;;;;;6.47;3.13;;;;;;;11.82;85.66;99552.22;5099424;28;20501;-63
2022/09/16 02:48:57;;;;;;;6.40;2.27;;;;;;;11.84;85.08;99547.56;5099686;28;20458;-62
2022/09/16 02:51:30;;;;;;;8.07;2.90;;;;;;;11.81;85.55;99550.56;5098993;28;20471;-63
2022/09/16 02:54:01;;;;;;;4.80;2.90;;;;;;;11.85;85.52;99554.59;5099489;28;20463;-62
2022/09/16 02:56:32;;;;;;;5.40;2.80;;;;;;;11.85;85.32;99554.59;5098584;28;20477;-63
2022/09/16 02:58:58;;;;;;;4.97;3.10;;;;;;;11.84;85.42;99558.28;5098522;28;20443;-63
2022/09/16 03:01:26;;;;;;;5.33;3.10;;;;;;;11.97;85.47;99555.13;5091894;28;20499;-65
2022/09/16 03:03:55;;;;;;;7.70;3.67;;;;;;;11.93;84.96;99554.63;5098884;28;20529;-63
2022/09/16 03:06:23;;;;;;;4.00;2.80;;;;;;;11.93;84.93;99551.13;5098832;28;20481;-64
2022/09/16 03:08:52;;;;;;;4.50;2.73;;;;;;;12.21;83.79;99551.63;5099606;28;20550;-63
2022/09/16 03:11:35;;;;;;;6.80;2.90;;;;;;;12.14;84.26;99553.31;5098781;28;20505;-64
2022/09/16 03:14:14;;;;;;;6.20;3.40;;;;;;;12.15;84.06;99545.09;5099487;28;20442;-63
2022/09/16 03:16:46;;;;;;;4.93;3.40;;;;;;;12.01;84.50;99535.91;5098554;28;20930;-63
2022/09/16 03:19:17;;;;;;;4.00;3.00;;;;;;;11.97;84.70;99542.56;5095215;28;20432;-63
2022/09/16 03:21:48;;;;;;;5.07;2.83;;;;;;;12.08;84.55;99543.25;5096027;28;20503;-63
2022/09/16 03:24:24;;;;;;;4.73;3.07;;;;;;;12.14;84.53;99529.19;5099344;28;20435;-63
2022/09/16 03:26:57;;;;;;;4.70;3.60;;;;;;;12.11;84.51;99524.16;5097843;28;23229;-63
2022/09/16 03:29:27;;;;;;;4.30;2.90;;;;;;;11.92;85.25;99536.03;5100405;28;20427;-63
2022/09/16 03:31:58;;;;;;;8.03;3.30;;;;;;;12.17;84.26;99539.53;5102074;28;20497;-65
2022/09/16 03:34:29;;;;;;;4.03;3.67;;;;;;;11.93;84.62;99535.06;5103119;28;20462;-64
2022/09/16 03:37:00;;;;;;;6.10;3.23;;;;;;;11.98;84.69;99538.06;5101768;28;20469;-64
2022/09/16 03:39:28;;;;;;;11.57;2.77;;;;;;;12.14;84.51;99535.38;5103015;28;20431;-65
2022/09/16 03:41:55;;;;;;;4.97;2.70;;;;;;;11.90;84.45;99533.50;5101214;28;20479;-63
2022/09/16 03:44:31;;;;;;;6.63;3.17;;;;;;;11.88;84.48;99540.88;5102418;28;20489;-63
2022/09/16 03:46:58;;;;;;;6.03;2.33;;;;;;;11.90;84.84;99536.19;5101883;28;20856;-64
2022/09/16 03:49:29;;;;;;;3.20;2.87;;;;;;;11.90;84.53;99538.84;5102053;28;20462;-63
2022/09/16 03:51:57;;;;;;;5.47;2.53;;;;;;;11.91;84.80;99539.72;5101834;28;20478;-64
2022/09/16 03:54:24;;;;;;;7.10;2.40;;;;;;;11.88;84.37;99544.38;5102731;28;20427;-64
2022/09/16 03:56:52;;;;;;;4.03;2.60;;;;;;;11.93;84.25;99535.06;5100499;28;20515;-64
2022/09/16 03:59:19;;;;;;;5.40;2.60;;;;;;;12.00;83.98;99530.69;5102661;28;21005;-63
2022/09/16 04:01:45;;;;;;;4.97;2.53;;;;;;;12.03;83.76;99539.25;5102001;28;20535;-63
2022/09/16 04:04:12;;;;;;;4.87;3.20;;;;;;;11.92;84.26;99530.69;5102316;28;20428;-64
2022/09/16 04:06:39;;;;;;;3.60;2.20;;;;;;;11.99;84.02;99529.00;5110410;28;20532;-63
2022/09/16 04:09:07;;;;;;;3.57;2.13;;;;;;;11.94;84.12;99536.72;5121317;28;20426;-63
2022/09/16 04:11:34;;;;;;;5.30;2.10;;;;;;;11.94;84.01;99534.88;5089497;28;20483;-63
2022/09/16 04:14:02;;;;;;;4.67;2.20;;;;;;;11.82;84.32;99530.81;5091795;28;20481;-63
2022/09/16 04:16:29;;;;;;;5.37;2.20;;;;;;;11.90;84.37;99524.63;5101196;28;20474;-68
2022/09/16 04:18:55;;;;;;;2.50;2.17;;;;;;;11.94;83.90;99523.31;5099987;28;20482;-66
2022/09/16 04:21:22;;;;;;;7.10;2.37;;;;;;;12.02;83.51;99516.13;5099688;28;20486;-66
2022/09/16 04:23:49;;;;;;;6.50;1.90;;;;;;;12.02;83.61;99520.66;5097224;28;20472;-66
2022/09/16 04:26:16;;;;;;;2.73;2.23;;;;;;;11.93;83.62;99510.94;5089209;28;20727;-66
2022/09/16 04:28:43;;;;;;;5.13;2.20;;;;;;;11.83;84.04;99511.06;5095624;28;20462;-65
2022/09/16 04:31:13;;;;;;;6.73;2.20;;;;;;;11.87;84.30;99512.41;5101275;28;20486;-66
2022/09/16 04:33:39;;;;;;;6.73;2.10;;;;;;;11.83;84.40;99516.44;5101833;28;20451;-65
2022/09/16 04:36:08;;;;;;;2.30;1.83;;;;;;;11.73;84.18;99505.88;5103190;28;20527;-66
2022/09/16 04:38:35;;;;;;;6.57;2.33;;;;;;;11.74;84.00;99512.91;5106395;28;20463;-66
2022/09/16 04:41:02;;;;;;;3.03;2.13;;;;;;;11.71;84.38;99510.56;5101752;28;20576;-68
2022/09/16 04:43:29;;;;;;;4.63;2.20;;;;;;;11.69;84.41;99510.72;5102757;28;20535;-67
2022/09/16 04:45:56;;;;;;;4.83;2.70;;;;;;;11.77;84.70;99519.75;5105641;28;20481;-67
2022/09/16 04:48:24;;;;;;;3.30;2.17;;;;;;;11.69;84.75;99521.44;5099503;28;20929;-66
2022/09/16 04:50:51;;;;;;;4.83;1.83;;;;;;;11.77;84.97;99517.94;5092313;28;20474;-68
2022/09/16 04:53:18;;;;;;;4.00;2.10;;;;;;;11.55;85.42;99516.72;5101024;28;20471;-67
2022/09/16 04:55:44;;;;;;;5.40;2.17;;;;;;;11.73;85.07;99513.91;5099243;28;20474;-66
2022/09/16 04:58:11;;;;;;;2.47;2.27;;;;;;;11.76;85.06;99507.38;5100480;28;20454;-67
2022/09/16 05:00:38;;;;;;;4.17;2.23;;;;;;;11.71;85.06;99512.41;5100874;28;20470;-68
2022/09/16 05:03:04;;;;;;;5.33;2.07;;;;;;;11.75;84.84;99514.59;5100771;28;20459;-68
2022/09/16 05:05:32;;;;;;;5.27;2.70;;;;;;;11.73;84.59;99513.91;5100677;28;20477;-67
2022/09/16 05:07:59;;;;;;;6.20;2.90;;;;;;;11.92;84.28;99506.59;5100076;28;20489;-66
2022/09/16 05:10:26;;;;;;;4.53;2.33;;;;;;;11.76;84.61;99502.03;5089515;28;20463;-67
2022/09/16 05:12:54;;;;;;;4.80;3.00;;;;;;;11.73;84.63;99510.41;5106096;28;20572;-67
2022/09/16 05:15:20;;;;;;;10.20;3.50;;;;;;;11.79;84.83;99510.56;5110392;28;21066;-68
2022/09/16 05:17:47;;;;;;;5.10;3.20;;;;;;;11.66;85.74;99516.41;5108650;28;20474;-67
2022/09/16 05:20:14;;;;;;;3.63;2.70;;;;;;;11.86;84.84;99518.78;5120948;28;20532;-67
2022/09/16 05:22:42;;;;;;;9.63;2.80;;;;;;;11.89;84.90;99521.13;5120499;28;20818;-67
2022/09/16 05:25:09;;;;;;;5.23;3.20;;;;;;;11.92;84.54;99512.78;5115835;28;20442;-66
2022/09/16 05:27:36;;;;;;;5.83;3.07;;;;;;;11.89;84.81;99515.78;5114200;28;21008;-67
2022/09/16 05:30:03;;;;;;;8.17;3.40;;;;;;;11.98;84.58;99522.00;5111662;28;20478;-68
2022/09/16 05:32:29;;;;;;;7.63;3.50;;;;;;;12.11;84.21;99522.31;5107533;28;20550;-66
2022/09/16 05:34:57;;;;;;;4.40;3.20;;;;;;;12.07;84.37;99518.31;5106623;28;20888;-67
2022/09/16 05:37:23;;;;;;;9.30;3.50;;;;;;;12.00;84.82;99523.50;5108204;28;20471;-67
2022/09/16 05:39:51;;;;;;;6.57;3.57;;;;;;;12.03;84.52;99527.66;5105752;28;20443;-68
2022/09/16 05:42:18;;;;;;;4.63;3.40;;;;;;;11.91;85.44;99529.00;5092587;28;20503;-67
2022/09/16 05:44:44;;;;;;;10.60;3.70;;;;;;;12.00;84.78;99531.53;5096224;28;20876;-68
2022/09/16 05:47:11;;;;;;;5.27;3.37;;;;;;;12.11;84.53;99526.84;5102390;28;20473;-67
2022/09/16 05:49:38;;;;;;;3.97;3.10;;;;;;;12.01;84.66;99529.69;5094180;28;20458;-67
2022/09/16 05:52:04;;;;;;;4.47;3.00;;;;;;;12.09;84.84;99524.31;5099693;28;20578;-67
2022/09/16 05:54:31;;;;;;;6.40;3.17;;;;;;;12.24;84.42;99525.31;5097834;28;20536;-67
2022/09/16 05:56:59;;;;;;;5.50;3.67;;;;;;;12.31;83.52;99524.63;5103087;27;20525;-67
2022/09/16 05:59:26;;;;;;;7.03;3.70;;;;;;;12.33;83.30;99528.81;5093381;28;20468;-67
2022/09/16 06:01:52;;;;;;;8.40;3.60;;;;;;;12.62;82.12;99532.81;5098845;28;20495;-67
2022/09/16 06:04:19;;;;;;;7.33;3.57;;;;;;;12.50;82.49;99526.97;5099988;28;20423;-67
2022/09/16 06:06:46;;;;;;;4.50;3.50;;;;;;;12.34;83.06;99533.19;5100119;28;20574;-67
2022/09/16 06:09:14;;;;;;;5.20;3.10;;;;;;;12.60;82.64;99535.66;5100797;28;20465;-67
2022/09/16 06:11:42;;;;;;;6.57;3.70;;;;;;;12.72;81.29;99546.84;5100159;28;20495;-68
2022/09/16 06:14:11;;;;;;;6.47;4.60;;;;;;;12.63;82.10;99553.22;5100105;28;20471;-68
2022/09/16 06:16:38;;;;;;;5.10;3.00;;;;;;;12.70;81.23;99551.53;5099941;28;20470;-68
2022/09/16 06:19:09;;;;;;;4.50;2.70;;;;;;;12.44;81.67;99546.41;5099897;28;20442;-68
2022/09/16 06:21:36;;;;;;;5.50;3.40;;;;;;;12.40;82.84;99548.59;5100192;28;20481;-67
2022/09/16 06:24:07;;;;;;;4.93;2.93;;;;;;;12.44;83.82;99546.41;5100615;28;20479;-68
2022/09/16 06:26:34;;;;;;;11.13;3.87;;;;;;;12.34;84.54;99546.59;5099730;28;20998;-66
2022/09/16 06:29:01;;;;;;;4.90;3.03;;;;;;;12.23;85.83;99544.25;5100031;28;20458;-68
2022/09/16 06:31:29;;;;;;;4.80;2.77;;;;;;;12.05;87.22;99539.06;5096265;28;20510;-67
2022/09/16 06:33:57;;;;;;;6.70;3.30;;;;;;;12.16;87.23;99545.94;5096314;28;20478;-65
2022/09/16 06:36:26;;;;;;;4.53;3.23;;;;;;;12.29;86.71;99530.19;5099092;28;20833;-68
2022/09/16 06:38:52;;;;;;;6.57;3.57;;;;;;;12.22;87.35;99537.19;5100416;28;20451;-67
2022/09/16 06:41:20;;;;;;;5.17;3.40;;;;;;;12.29;87.43;99534.69;5106259;27;20504;-67
2022/09/16 06:43:50;;;;;;;6.37;4.00;;;;;;;12.42;87.45;99529.66;5106198;28;20532;-66
2022/09/16 06:46:18;;;;;;;8.97;4.20;;;;;;;12.59;86.57;99533.97;5099162;28;20520;-68
2022/09/16 06:48:49;;;;;;;5.13;3.07;;;;;;;12.62;85.90;99535.50;5099874;28;20515;-67
2022/09/16 06:51:16;;;;;;;7.87;3.63;;;;;;;12.63;84.65;99523.72;5099487;28;20482;-67
2022/09/16 06:53:47;;;;;;;10.20;3.67;;;;;;;12.77;84.18;99531.06;5097409;28;20520;-68
2022/09/16 06:56:15;;;;;;;8.83;3.53;;;;;;;12.84;83.83;99533.06;5098610;28;20474;-67
2022/09/16 06:58:43;;;;;;;6.23;3.07;;;;;;;13.25;82.57;99532.91;5117004;28;20452;-67
2022/09/16 07:01:13;;;;;;;5.27;3.70;;;;;;;14.95;77.77;99525.47;5096702;28;20529;-65
2022/09/16 07:03:41;;;;;;;4.67;3.57;;;;;;;17.47;65.37;99533.16;5106697;28;20479;-66
2022/09/16 07:06:10;;;;;;;6.03;2.50;;;;;;;17.55;63.32;99540.25;5096178;28;20474;-68
2022/09/16 07:08:38;;;;;;;4.47;2.30;;;;;;;18.00;60.44;99535.19;5100397;28;20470;-67
2022/09/16 07:11:07;;;;;;;8.70;2.00;;;;;;;19.12;57.68;99537.16;5102213;28;20547;-69
2022/09/16 07:13:34;;;;;;;3.27;1.60;;;;;;;18.38;57.85;99539.97;5101096;28;20600;-67
2022/09/16 07:16:02;;;;;;;1.67;1.47;;;;;;;17.07;62.54;99542.97;5101873;28;20482;-69
2022/09/16 07:18:29;;;;;;;2.50;1.33;;;;;;;18.26;60.14;99544.31;5101713;28;20737;-68
2022/09/16 07:21:02;;;;;;;5.17;1.80;;;;;;;18.91;56.54;99536.38;5099505;28;20495;-67
2022/09/16 07:23:31;;;;;;;3.47;1.80;;;;;;;17.07;61.81;99540.28;5092635;28;21229;-68
2022/09/16 07:26:02;;;;;;;3.47;1.93;;;;;;;17.56;60.64;99551.91;5115663;27;20489;-68
2022/09/16 07:28:30;;;;;;;5.27;1.90;;;;;;;18.29;58.59;99548.50;5112238;28;20467;-68
2022/09/16 07:30:56;;;;;;;5.83;1.80;;;;;;;19.01;56.27;99546.78;5121872;27;20543;-68
2022/09/16 07:33:23;;;;;;;2.97;1.40;;;;;;;20.95;50.91;99531.88;5122475;28;20447;-68
2022/09/16 07:35:50;;;;;;;5.57;1.90;;;;;;;22.60;46.19;99545.25;5121112;27;20478;-66
2022/09/16 07:38:16;;;;;;;3.03;1.40;;;;;;;21.83;47.72;99541.44;5106340;28;20455;-68
2022/09/16 07:40:44;;;;;;;6.03;1.53;;;;;;;20.50;50.25;99550.06;5119311;27;20468;-69
2022/09/16 07:43:11;;;;;;;7.37;1.10;;;;;;;19.28;53.66;99536.66;5120976;28;20480;-69
2022/09/16 07:45:38;;;;;;;5.73;2.10;;;;;;;17.55;57.85;99551.06;5105047;28;20490;-68
2022/09/16 07:48:04;;;;;;;2.50;1.20;;;;;;;16.81;61.04;99549.03;5101229;28;20537;-68
2022/09/16 07:50:31;;;;;;;2.53;1.10;;;;;;;17.09;61.52;99552.53;5100150;28;20499;-69
2022/09/16 07:52:58;;;;;;;3.90;1.77;;;;;;;16.00;63.24;99558.38;5102047;28;20553;-66
2022/09/16 07:55:24;;;;;;;4.33;1.43;;;;;;;16.55;61.47;99550.53;5101002;28;20481;-68
2022/09/16 07:57:52;;;;;;;4.33;1.13;;;;;;;17.28;59.85;99559.06;5092579;28;20455;-68
2022/09/16 08:00:19;;;;;;;4.87;1.57;;;;;;;17.67;58.33;99565.66;5101240;28;20428;-69
2022/09/16 08:02:46;;;;;;;2.23;1.00;;;;;;;19.34;52.04;99559.38;5099955;28;20443;-68
2022/09/16 08:05:14;;;;;;;2.07;0.90;;;;;;;19.78;50.80;99549.56;5097617;28;20459;-69
2022/09/16 08:07:41;;;;;;;3.50;1.10;;;;;;;19.72;49.49;99548.53;5101496;28;20495;-68
2022/09/16 08:10:08;;;;;;;3.87;1.23;;;;;;;21.30;46.60;99547.56;5100640;28;20461;-67
2022/09/16 08:12:34;;;;;;;2.07;0.80;;;;;;;20.47;46.70;99545.09;5099844;28;20457;-66
2022/09/16 08:15:02;;;;;;;5.10;0.90;;;;;;;21.45;45.71;99553.44;5101488;28;20467;-67
2022/09/16 08:17:29;;;;;;;5.27;1.37;;;;;;;23.05;41.96;99550.09;5099792;28;20545;-67
2022/09/16 08:19:56;;;;;;;2.83;0.60;;;;;;;22.31;42.79;99556.03;5100137;28;20591;-67
2022/09/16 08:22:24;;;;;;;1.97;0.90;;;;;;;21.56;44.99;99552.72;5100779;28;20565;-67
2022/09/16 08:24:51;;;;;;;2.27;0.80;;;;;;;21.63;43.67;99552.63;5101264;28;20481;-68
2022/09/16 08:27:18;;;;;;;3.67;1.10;;;;;;;20.62;46.02;99562.94;5099152;28;20541;-68
2022/09/16 08:29:44;;;;;;;2.70;0.77;;;;;;;21.50;43.88;99563.69;5101265;28;20491;-68
2022/09/16 08:32:14;;;;;;;2.67;0.80;;;;;;;21.48;43.93;99571.25;5100800;28;20479;-68
2022/09/16 08:34:40;;;;;;;3.43;0.80;;;;;;;21.26;44.55;99558.06;5099789;28;20430;-68
2022/09/16 08:37:07;;;;;;;5.60;1.20;;;;;;;21.80;43.25;99556.38;5099993;28;20460;-67
2022/09/16 08:39:34;;;;;;;5.33;1.23;;;;;;;22.19;43.02;99558.72;5101049;28;20436;-67
2022/09/16 08:42:32;;;;;;;3.10;1.07;;;;;;;22.99;39.59;99556.50;5098328;28;20483;-68
2022/09/16 08:45:10;;;;;;;4.97;1.13;;;;;;;23.19;38.99;99551.50;5084799;28;20484;-68
2022/09/16 08:47:49;;;;;;;5.03;1.20;;;;;;;24.04;36.73;99549.91;5079031;28;20516;-67
2022/09/16 08:50:19;;;;;;;3.00;0.67;;;;;;;22.19;39.47;99555.97;5087776;28;20511;-67
2022/09/16 08:52:47;;;;;;;3.60;1.10;;;;;;;22.08;39.39;99560.34;5098846;28;20470;-67
2022/09/16 08:55:16;;;;;;;2.10;0.93;;;;;;;22.46;39.33;99563.72;5099196;28;20449;-69
2022/09/16 08:57:51;;;;;;;3.73;1.27;;;;;;;20.43;42.61;99557.44;5098733;28;20461;-68
2022/09/16 09:00:18;;;;;;;3.63;1.07;;;;;;;19.81;43.99;99557.28;5099320;28;20437;-68
2022/09/16 09:02:52;;;;;;;4.63;1.03;;;;;;;21.51;40.00;99570.75;5098556;28;20457;-68
2022/09/16 09:05:27;;;;;;;3.03;0.87;;;;;;;22.49;38.38;99560.53;5086573;28;20455;-68
2022/09/16 09:08:18;;;;;;;4.07;1.03;;;;;;;21.66;38.84;99554.88;5100276;28;21063;-68
2022/09/16 09:10:49;;;;;;;3.70;1.30;;;;;;;22.56;37.17;99564.81;5098432;28;20487;-68
2022/09/16 09:13:32;;;;;;;5.20;1.20;;;;;;;20.92;40.82;99563.06;5099657;28;20512;-68
2022/09/16 09:16:04;;;;;;;4.00;1.17;;;;;;;21.51;37.84;99574.34;5098888;28;20679;-68
2022/09/16 09:18:39;;;;;;;5.97;1.03;;;;;;;20.82;39.50;99573.63;5097650;28;20481;-67
2022/09/16 09:21:16;;;;;;;6.00;1.20;;;;;;;21.39;38.47;99570.69;5099642;28;20503;-67
2022/09/16 09:23:50;;;;;;;7.83;1.50;;;;;;;20.89;39.05;99563.50;5099955;28;20432;-67
2022/09/16 09:26:21;;;;;;;7.57;1.23;;;;;;;18.98;42.19;99564.25;5097797;28;20498;-68
2022/09/16 09:28:57;;;;;;;3.37;1.00;;;;;;;18.58;44.20;99568.91;5099122;28;21013;-67
2022/09/16 09:31:33;;;;;;;8.93;1.30;;;;;;;19.75;42.61;99555.41;5098905;28;20774;-67
2022/09/16 09:34:07;;;;;;;6.47;1.40;;;;;;;22.53;36.06;99551.69;5097757;28;20486;-68
2022/09/16 09:36:45;;;;;;;5.63;1.53;;;;;;;23.64;33.11;99548.06;5099304;28;21027;-67
2022/09/16 09:39:23;;;;;;;3.10;1.13;;;;;;;23.99;32.47;99547.09;5100032;28;20429;-67
2022/09/16 09:41:52;;;;;;;5.00;1.00;;;;;;;22.13;35.12;99548.75;5097699;28;20488;-68
2022/09/16 09:44:37;;;;;;;3.50;1.10;;;;;;;20.65;37.38;99555.16;5096976;28;20484;-67
2022/09/16 09:47:07;;;;;;;8.43;1.60;;;;;;;20.67;38.72;99550.34;5098575;28;20503;-67
2022/09/16 09:49:41;;;;;;;5.17;1.00;;;;;;;22.72;34.60;99551.53;5097698;28;20517;-68
2022/09/16 09:52:21;;;;;;;4.20;1.20;;;;;;;21.47;37.03;99545.09;5098641;28;20472;-67
2022/09/16 09:54:49;;;;;;;4.03;1.00;;;;;;;20.13;39.09;99546.41;5097712;28;20492;-67
2022/09/16 09:57:22;;;;;;;4.00;0.93;;;;;;;19.20;41.23;99536.91;5098333;28;20501;-67
2022/09/16 09:59:51;;;;;;;2.87;0.87;;;;;;;19.05;41.93;99531.75;5099078;28;20429;-67
2022/09/16 10:02:20;;;;;;;6.20;1.13;;;;;;;20.48;39.60;99532.31;5095950;28;20509;-67
2022/09/16 10:04:48;;;;;;;5.50;1.13;;;;;;;19.21;42.46;99527.72;5098558;28;20462;-67
2022/09/16 10:07:19;;;;;;;6.97;1.73;;;;;;;19.59;41.96;99520.66;5098094;28;21041;-67
2022/09/16 10:09:48;;;;;;;3.57;1.10;;;;;;;21.08;38.75;99531.75;5097998;28;20756;-67
2022/09/16 10:12:26;;;;;;;5.23;1.17;;;;;;;20.17;39.26;99527.78;5098149;28;20500;-67
2022/09/16 10:14:57;;;;;;;4.40;1.00;;;;;;;21.28;38.37;99528.75;5098420;28;20441;-66
2022/09/16 10:17:23;;;;;;;3.77;1.03;;;;;;;19.00;40.92;99531.53;5096716;28;20664;-67
2022/09/16 10:19:54;;;;;;;3.93;1.03;;;;;;;20.82;37.04;99532.88;5098632;28;20895;-66
2022/09/16 10:22:24;;;;;;;4.57;1.17;;;;;;;19.99;40.00;99532.09;5098291;28;20481;-67
2022/09/16 10:24:57;;;;;;;4.90;1.03;;;;;;;19.26;42.15;99519.78;5097883;28;20430;-68
2022/09/16 10:27:26;;;;;;;3.10;0.83;;;;;;;21.53;37.62;99530.59;5098006;28;20487;-67
2022/09/16 10:30:13;;;;;;;3.70;1.27;;;;;;;22.45;34.62;99522.06;5095082;28;20444;-68
2022/09/16 10:32:49;;;;;;;4.43;1.07;;;;;;;22.62;35.15;99527.63;5091762;28;20542;-68
2022/09/16 10:35:21;;;;;;;6.23;1.33;;;;;;;21.94;35.50;99512.59;5097572;28;20441;-68
2022/09/16 10:37:53;;;;;;;4.77;1.40;;;;;;;22.40;35.13;99518.41;5098831;28;20485;-68
2022/09/16 10:40:22;;;;;;;5.83;1.30;;;;;;;22.84;34.27;99514.19;5100292;28;20552;-68
2022/09/16 10:42:49;;;;;;;4.10;1.40;;;;;;;21.67;36.29;99517.63;5102337;28;20461;-68
2022/09/16 10:45:21;;;;;;;3.33;1.10;;;;;;;21.81;35.04;99519.91;5101651;28;20445;-67
2022/09/16 10:47:51;;;;;;;3.30;1.40;;;;;;;23.19;32.40;99510.59;5093604;28;20501;-67
2022/09/16 10:50:20;;;;;;;11.57;1.40;;;;;;;24.10;30.48;99512.56;5102136;28;20839;-67
2022/09/16 10:52:51;;;;;;;3.60;1.00;;;;;;;19.66;38.30;99500.56;5102700;28;20954;-68
2022/09/16 10:55:24;;;;;;;3.90;1.27;;;;;;;19.21;39.75;99513.34;5100898;28;20452;-67
2022/09/16 10:57:51;;;;;;;4.50;1.03;;;;;;;18.40;41.21;99515.38;5102124;28;20447;-67
2022/09/16 11:00:20;;;;;;;5.60;1.27;;;;;;;17.63;42.46;99513.03;5102633;28;20444;-67
2022/09/16 11:03:02;;;;;;;4.13;1.30;;;;;;;20.16;38.42;99502.56;5100925;28;20442;-67
2022/09/16 11:05:33;;;;;;;4.77;0.90;;;;;;;19.88;37.72;99497.56;5101924;28;20495;-68
2022/09/16 11:08:09;;;;;;;4.90;1.20;;;;;;;20.90;35.27;99497.25;5102512;28;20495;-68
2022/09/16 11:10:43;;;;;;;5.87;1.57;;;;;;;18.78;39.69;99499.31;5094913;28;20464;-68
2022/09/16 11:13:21;;;;;;;5.47;1.37;;;;;;;18.88;39.38;99493.44;5102118;28;20486;-68
2022/09/16 11:16:03;;;;;;;2.83;1.00;;;;;;;19.90;38.05;99488.13;5101781;28;20487;-68
2022/09/16 11:18:40;;;;;;;2.73;0.70;;;;;;;21.63;34.55;99484.63;5101664;28;20521;-67
2022/09/16 11:21:33;;;;;;;7.10;1.17;;;;;;;22.56;33.03;99479.53;5100547;28;20469;-67
2022/09/16 11:24:21;;;;;;;5.23;1.40;;;;;;;23.00;31.66;99479.09;5089425;28;20465;-67
2022/09/16 11:26:54;;;;;;;5.87;1.50;;;;;;;23.58;30.89;99483.53;5099202;28;20468;-67
2022/09/16 11:29:37;;;;;;;5.77;1.00;;;;;;;22.12;32.70;99484.47;5099913;28;20538;-68
2022/09/16 11:32:12;;;;;;;3.27;1.00;;;;;;;22.13;32.99;99481.53;5091898;28;20476;-68
2022/09/16 11:34:49;;;;;;;7.20;1.30;;;;;;;21.04;34.72;99476.19;5101749;28;20534;-67
2022/09/16 11:37:22;;;;;;;3.87;1.37;;;;;;;20.99;34.57;99479.59;5101473;28;20486;-67
2022/09/16 11:40:16;;;;;;;2.40;0.83;;;;;;;19.99;36.39;99475.13;5086220;28;20498;-66
2022/09/16 11:42:45;;;;;;;2.40;0.60;;;;;;;19.34;37.96;99476.16;5077753;28;20465;-67
2022/09/16 11:45:24;;;;;;;3.50;1.40;;;;;;;19.28;39.18;99492.47;5079926;28;20534;-67
2022/09/16 11:48:00;;;;;;;5.80;1.50;;;;;;;20.77;36.68;99494.69;5079203;28;20938;-67
2022/09/16 11:50:39;;;;;;;2.13;0.97;;;;;;;19.84;38.06;99496.31;5080221;28;20464;-66